Warren, MN (56762)

8:47 PM CST on February 27, 2017 (GMT -0600)
Corner Farms | | Change Station
Active Advisory: Flood Warning

Elev 810 ft 48.34 °N, 97.00 °W | Updated 19 seconds ago

Overcast
Overcast
13.8 °F
Feels Like 3 °F
N
8.1
Wind Variable Wind from WNW
Gusts 13.0 mph

Today
High -- | Low -- °F
--% Chance of Precip.
Yesterday
High -- | Low -- °F
Precip. -- in
Pressure 29.96 in
Visibility 10.0 miles
Clouds Overcast 4600 ft
Windchill 3 °F
Dew Point 11 °F
Humidity 89%
Rainfall 0.00 in
Snow Depth Not available.
7:11 AM 6:08 PM
Waxing Crescent, 3% visible
METAR KGFK 280153Z 36013KT 10SM OVC046 M07/M12 A2991 RMK AO2 SLP146 T10721122
Pressure 29.96 in
Visibility 10.0 miles
Clouds Overcast 4600 ft
Windchill 3 °F
Dew Point 11 °F
Humidity 89%
Rainfall 0.00 in
Snow Depth Not available.
7:11 AM 6:08 PM
Waxing Crescent, 3% visible
METAR KGFK 280153Z 36013KT 10SM OVC046 M07/M12 A2991 RMK AO2 SLP146 T10721122

Get Your Daily Forecast Email!

Thanks for signing up!

Be on the lookout for a verification email in your inbox.

You'll start receiving the daily forecast at 8 AM.

×

10-Day Weather Forecast

Almanac

Astronomy

Feb. 27, 2017 Rise Set
Actual Time
Civil Twilight
Nautical Twilight
Astronomical Twilight
Moon
Length of Visible Light
Length of Day
Tomorrow will be .
, % of the Moon is Illuminated

Today's Extremes

State Highs State Lows

Community

WunderPhotos

Upload Photos

1,962,540 photos uploaded!

WunderBlog® & News

Nearby

Air Quality

  Air Quality AQ Index Pollutant
Not available.

Snow Depth

Station Depth Elevation

Earthquake Activity

City Distance Mag. Time & Date
Minimum magnitude displayed is 2.5.

Coastal Water Temperatures

Place Temperature

Stations

Nearby Weather Stations

Station Location Temp. Windchill Dew Point Humidity Wind Precip. Elev Updated Type
                   

Watches & Warnings

Flood Warning
Issued: 8:21 PM CST Feb. 27, 2017 – National Weather Service

The Flood Warning continues for...
* ... Oslo... on the Red River.
* Until Saturday evening... or until the warning is cancelled.
* At 7:15 PM Monday the stage was 27.6 feet.
* Minor flooding is occurring and during the next 7 days... minor
flooding is forecast.
* Minor flood stage is 26.0 feet.
* Forecast... the river will rise to a crest near 28.0 feet sometime
Tuesday early afternoon. The river will fall below flood stage
Friday early afternoon.
* Impact statement(s) - at 30.0 feet, moderate flood stage.


Daily 7pm CDT/6pm CST forecast stage in feet:

date Tue Wed Thu Fri Sat sun Mon
(month/day) 02/28 03/01 03/02 03/03 03/04 03/05 03/06
Oslo 28.0 27.6 26.8 25.7 24.6 23.4 M


lat... Lon 4810 9721 4807 9698 4846 9706 4848 9725